Time;durP1;ratioP1;P1;durP2;ratioP2;P2;SDS_P1;SDS_P2;PMS_P1;PMS_P2;Temp;Humidity;BMP_temperature;BMP_pressure;BME280_temperature;BME280_humidity;BME280_pressure;Samples;Min_cycle;Max_cycle;Signal;HPM_P1;HPM_P2
2023/11/13 00:00:39;;;;;;;10.10;8.10;;;;;;;7.00;100.00;99329.97;88482;273;137989;-69
2023/11/13 00:02:41;;;;;;;9.40;7.70;;;;;;;7.01;100.00;99335.64;88534;277;25185;-70
2023/11/13 00:04:45;;;;;;;9.20;7.80;;;;;;;7.03;100.00;99336.52;88438;279;136518;-70
2023/11/13 00:06:47;;;;;;;8.80;7.70;;;;;;;6.98;100.00;99333.77;88499;282;24132;-69
2023/11/13 00:08:49;;;;;;;10.80;7.40;;;;;;;7.04;100.00;99341.54;88318;275;138038;-69
2023/11/13 00:10:51;;;;;;;12.20;8.50;;;;;;;7.04;100.00;99341.16;88441;282;22594;-69
2023/11/13 00:12:53;;;;;;;8.10;7.10;;;;;;;7.03;100.00;99347.11;88339;280;137585;-67
2023/11/13 00:14:55;;;;;;;10.30;6.80;;;;;;;7.01;100.00;99354.59;88508;280;22530;-66
2023/11/13 00:16:58;;;;;;;7.70;7.00;;;;;;;6.96;100.00;99353.89;88430;277;136698;-67
2023/11/13 00:19:01;;;;;;;12.70;6.50;;;;;;;6.93;100.00;99354.59;88573;280;22596;-69
2023/11/13 00:21:05;;;;;;;8.30;5.90;;;;;;;6.89;100.00;99353.09;88610;280;136672;-68
2023/11/13 00:23:07;;;;;;;10.20;6.80;;;;;;;6.87;100.00;99355.07;88791;281;22537;-69
2023/11/13 00:25:09;;;;;;;11.50;8.50;;;;;;;6.84;100.00;99360.17;88503;280;136814;-68
2023/11/13 00:27:11;;;;;;;6.10;5.60;;;;;;;6.78;100.00;99366.23;88637;280;22615;-70
2023/11/13 00:29:13;;;;;;;7.80;6.20;;;;;;;6.74;100.00;99368.37;88470;279;136713;-69
2023/11/13 00:31:16;;;;;;;6.80;6.00;;;;;;;6.70;100.00;99375.30;88484;277;24064;-68
2023/11/13 00:33:18;;;;;;;8.50;6.00;;;;;;;6.69;100.00;99377.05;88452;272;137088;-67
2023/11/13 00:35:20;;;;;;;8.10;6.00;;;;;;;6.68;100.00;99376.86;88584;279;22993;-69
2023/11/13 00:37:22;;;;;;;7.10;5.90;;;;;;;6.68;100.00;99377.70;88599;277;136520;-71
2023/11/13 00:39:24;;;;;;;7.60;6.10;;;;;;;6.67;100.00;99379.59;88809;273;24214;-71
2023/11/13 00:41:27;;;;;;;8.70;6.40;;;;;;;6.70;100.00;99378.72;88394;280;137798;-68
2023/11/13 00:43:29;;;;;;;6.90;5.80;;;;;;;6.69;100.00;99375.83;88486;282;24060;-69
2023/11/13 00:45:32;;;;;;;6.60;5.80;;;;;;;6.71;100.00;99382.98;88466;273;137131;-68
2023/11/13 00:47:35;;;;;;;6.70;5.70;;;;;;;6.71;100.00;99387.41;88688;273;22628;-70
2023/11/13 00:49:38;;;;;;;7.00;5.30;;;;;;;6.71;100.00;99385.59;88505;281;137584;-67
2023/11/13 00:51:41;;;;;;;6.00;5.50;;;;;;;6.71;100.00;99387.58;88592;281;22575;-69
2023/11/13 00:53:43;;;;;;;5.90;5.10;;;;;;;6.72;100.00;99393.65;88457;275;136062;-69
2023/11/13 00:55:45;;;;;;;6.20;5.10;;;;;;;6.72;100.00;99392.59;88600;274;22532;-69
2023/11/13 00:57:47;;;;;;;5.00;4.60;;;;;;;6.72;100.00;99392.36;88460;275;138140;-69
2023/11/13 00:59:49;;;;;;;8.40;6.30;;;;;;;6.72;100.00;99393.86;88506;282;24038;-69
2023/11/13 01:01:51;;;;;;;5.50;4.90;;;;;;;6.74;100.00;99397.97;88486;281;136534;-69
2023/11/13 01:03:53;;;;;;;6.90;5.20;;;;;;;6.75;100.00;99403.73;88630;279;24020;-68
2023/11/13 01:05:56;;;;;;;7.10;5.60;;;;;;;6.75;100.00;99402.91;88686;273;137367;-66
2023/11/13 01:07:58;;;;;;;5.10;4.50;;;;;;;6.74;100.00;99401.76;88646;280;25082;-68
2023/11/13 01:10:00;;;;;;;5.40;4.90;;;;;;;6.71;100.00;99406.29;88516;273;136694;-68
2023/11/13 01:12:02;;;;;;;5.10;4.60;;;;;;;6.70;100.00;99413.80;88473;275;137159;-71
2023/11/13 01:14:05;;;;;;;7.10;5.20;;;;;;;6.69;100.00;99413.11;88697;281;25124;-71
2023/11/13 01:16:08;;;;;;;5.50;5.00;;;;;;;6.68;100.00;99414.77;88450;275;136333;-69
2023/11/13 01:18:10;;;;;;;5.80;5.10;;;;;;;6.69;100.00;99419.66;88686;275;24131;-65
2023/11/13 01:20:12;;;;;;;5.30;4.80;;;;;;;6.68;100.00;99418.63;88590;280;136840;-68
2023/11/13 01:22:15;;;;;;;5.40;4.70;;;;;;;6.68;100.00;99421.45;88651;273;24098;-68
2023/11/13 01:24:17;;;;;;;6.00;5.10;;;;;;;6.69;100.00;99427.09;88572;280;136506;-66
2023/11/13 01:26:19;;;;;;;6.90;4.60;;;;;;;6.69;100.00;99426.18;88589;280;22527;-67
2023/11/13 01:28:20;;;;;;;6.20;5.60;;;;;;;6.70;100.00;99425.10;88407;282;136771;-65
2023/11/13 01:30:25;;;;;;;6.80;6.00;;;;;;;6.70;100.00;99426.05;88662;280;24036;-64
2023/11/13 01:32:27;;;;;;;7.50;6.10;;;;;;;6.70;100.00;99431.13;88513;273;136584;-63
2023/11/13 01:34:29;;;;;;;6.30;5.70;;;;;;;6.71;100.00;99432.89;88565;282;22545;-64
2023/11/13 01:36:31;;;;;;;8.80;6.40;;;;;;;6.73;100.00;99436.81;88487;280;136326;-63
2023/11/13 01:38:33;;;;;;;6.80;6.10;;;;;;;6.74;100.00;99443.23;88632;280;24034;-64
2023/11/13 01:40:40;;;;;;;7.20;6.10;;;;;;;6.74;100.00;99448.30;88426;274;136821;-64
2023/11/13 01:42:42;;;;;;;11.40;6.70;;;;;;;6.72;100.00;99447.61;88646;272;22954;-64
2023/11/13 01:44:45;;;;;;;6.20;5.30;;;;;;;6.71;100.00;99449.88;88602;275;136345;-65
2023/11/13 01:46:47;;;;;;;6.90;6.20;;;;;;;6.70;100.00;99450.19;88594;282;22541;-64
2023/11/13 01:48:53;;;;;;;7.10;6.10;;;;;;;6.68;100.00;99447.94;88660;273;136583;-67
2023/11/13 01:50:55;;;;;;;6.80;5.90;;;;;;;6.66;100.00;99447.86;88612;277;22561;-69
2023/11/13 01:52:57;;;;;;;9.10;6.60;;;;;;;6.65;100.00;99445.03;88487;273;136563;-70
2023/11/13 01:55:02;;;;;;;9.30;7.40;;;;;;;6.61;100.00;99444.87;88646;280;22537;-72
2023/11/13 01:57:07;;;;;;;9.90;8.90;;;;;;;6.58;100.00;99448.26;88547;280;136810;-69
2023/11/13 01:59:12;;;;;;;9.70;8.60;;;;;;;6.56;100.00;99455.06;88679;280;22796;-68
2023/11/13 02:01:14;;;;;;;11.10;7.30;;;;;;;6.57;100.00;99459.52;88515;281;136959;-67
2023/11/13 02:03:18;;;;;;;8.10;6.90;;;;;;;6.57;100.00;99458.95;88686;281;23758;-67
2023/11/13 02:05:21;;;;;;;7.50;6.80;;;;;;;6.58;100.00;99467.27;88529;282;136753;-69
2023/11/13 02:07:23;;;;;;;9.80;7.90;;;;;;;6.59;100.00;99471.84;88605;280;22540;-69
2023/11/13 02:09:26;;;;;;;10.80;7.60;;;;;;;6.52;100.00;99459.58;88522;280;137670;-68
2023/11/13 02:11:28;;;;;;;10.80;8.70;;;;;;;6.62;100.00;99479.92;88622;273;22544;-71
2023/11/13 02:13:30;;;;;;;11.50;9.90;;;;;;;6.63;100.00;99481.36;88586;276;136638;-69
2023/11/13 02:15:37;;;;;;;10.40;9.10;;;;;;;6.62;100.00;99478.15;88610;281;22602;-70
2023/11/13 02:17:40;;;;;;;11.50;8.50;;;;;;;6.62;100.00;99481.14;88594;281;137418;-69
2023/11/13 02:19:45;;;;;;;11.80;8.70;;;;;;;6.62;100.00;99486.48;88654;273;24015;-70
2023/11/13 02:21:47;;;;;;;8.80;7.30;;;;;;;6.59;100.00;99487.49;88579;273;136602;-71
2023/11/13 02:23:51;;;;;;;10.80;8.80;;;;;;;6.58;100.00;99490.41;88674;278;22536;-69
2023/11/13 02:25:58;;;;;;;10.20;8.40;;;;;;;6.59;100.00;99493.89;88560;280;136576;-70
2023/11/13 02:28:01;;;;;;;10.10;7.90;;;;;;;6.59;100.00;99496.03;88670;279;24164;-68
2023/11/13 02:30:03;;;;;;;11.40;9.00;;;;;;;6.58;100.00;99499.52;88704;279;22533;-70
2023/11/13 02:32:06;;;;;;;11.50;8.60;;;;;;;6.55;100.00;99494.81;88690;276;136860;-68
2023/11/13 02:34:08;;;;;;;10.70;8.60;;;;;;;6.53;100.00;99497.46;88748;280;24052;-70
2023/11/13 02:36:10;;;;;;;11.40;10.00;;;;;;;6.52;100.00;99503.56;88606;279;136987;-70
2023/11/13 02:38:12;;;;;;;11.40;8.90;;;;;;;6.53;100.00;99502.23;88562;280;25096;-70
2023/11/13 02:40:14;;;;;;;11.70;9.00;;;;;;;6.53;100.00;99507.00;88604;272;137042;-68
2023/11/13 02:42:16;;;;;;;13.60;9.40;;;;;;;6.54;100.00;99513.07;88787;279;22524;-68
2023/11/13 02:44:19;;;;;;;13.30;9.50;;;;;;;6.54;100.00;99512.27;88611;279;136933;-68
2023/11/13 02:46:21;;;;;;;11.00;9.40;;;;;;;6.55;100.00;99515.00;88778;279;23715;-70
2023/11/13 02:48:23;;;;;;;13.60;9.80;;;;;;;6.58;100.00;99512.77;88429;280;137121;-69
2023/11/13 02:50:25;;;;;;;14.50;10.40;;;;;;;6.59;100.00;99518.77;88711;280;22596;-69
2023/11/13 02:52:27;;;;;;;11.50;9.50;;;;;;;6.59;100.00;99512.55;88493;280;137615;-70
2023/11/13 02:54:30;;;;;;;14.60;10.80;;;;;;;6.59;100.00;99512.88;88727;280;24028;-69
2023/11/13 02:56:32;;;;;;;20.20;9.90;;;;;;;6.60;100.00;99515.08;88661;279;136940;-68
2023/11/13 02:58:35;;;;;;;13.40;10.30;;;;;;;6.62;100.00;99519.50;88591;272;22537;-66
2023/11/13 03:00:36;;;;;;;14.50;10.10;;;;;;;6.63;100.00;99514.90;88441;280;139718;-70
2023/11/13 03:02:39;;;;;;;15.60;12.10;;;;;;;6.65;100.00;99519.11;88687;276;24760;-67
2023/11/13 03:04:41;;;;;;;14.20;10.10;;;;;;;6.67;100.00;99521.60;88343;281;136803;-68
2023/11/13 03:06:43;;;;;;;14.20;11.60;;;;;;;6.66;100.00;99527.87;88522;281;25233;-68
2023/11/13 03:08:45;;;;;;;14.40;11.30;;;;;;;6.65;100.00;99529.60;88392;281;138459;-68
2023/11/13 03:10:48;;;;;;;16.70;11.60;;;;;;;6.62;100.00;99532.70;88664;280;22534;-68
2023/11/13 03:12:51;;;;;;;16.70;11.10;;;;;;;6.60;100.00;99530.81;88505;279;138245;-67
2023/11/13 03:14:53;;;;;;;14.20;11.60;;;;;;;6.57;100.00;99527.42;88650;279;26282;-68
2023/11/13 03:16:56;;;;;;;14.10;12.70;;;;;;;6.62;100.00;99541.32;88545;279;136983;-68
2023/11/13 03:19:00;;;;;;;16.60;11.80;;;;;;;6.64;100.00;99542.02;88777;276;25219;-68
2023/11/13 03:21:04;;;;;;;13.80;11.60;;;;;;;6.64;100.00;99544.44;88535;272;137016;-69
2023/11/13 03:23:07;;;;;;;15.10;12.00;;;;;;;6.62;100.00;99543.50;88712;279;22556;-70
2023/11/13 03:25:10;;;;;;;17.20;12.80;;;;;;;6.61;100.00;99547.67;88454;278;137242;-69
2023/11/13 03:27:14;;;;;;;18.10;12.80;;;;;;;6.58;100.00;99554.13;88639;280;25099;-69
2023/11/13 03:29:16;;;;;;;17.50;12.20;;;;;;;6.57;100.00;99547.23;88451;282;137517;-68
2023/11/13 03:31:18;;;;;;;14.10;11.80;;;;;;;6.58;100.00;99555.95;88494;280;25096;-69
2023/11/13 03:33:23;;;;;;;17.00;12.30;;;;;;;6.59;100.00;99557.23;88348;275;136519;-70
2023/11/13 03:35:26;;;;;;;16.70;12.30;;;;;;;6.61;100.00;99555.91;88857;272;22542;-69
2023/11/13 03:37:28;;;;;;;17.40;12.60;;;;;;;6.63;100.00;99559.08;88530;274;138702;-71
2023/11/13 03:40:48;;;;;;;16.30;12.10;;;;;;;6.46;100.00;99560.02;86761;305;601621;-72
2023/11/13 03:42:50;;;;;;;23.30;13.30;;;;;;;6.43;100.00;99560.90;87837;289;22574;-71
2023/11/13 03:44:52;;;;;;;18.10;13.00;;;;;;;6.52;100.00;99564.25;87751;296;136335;-69
2023/11/13 03:46:54;;;;;;;15.10;13.30;;;;;;;6.62;100.00;99566.97;87719;298;23896;-70
2023/11/13 03:48:56;;;;;;;18.30;12.00;;;;;;;6.62;100.00;99574.72;87716;296;136716;-70
2023/11/13 03:50:58;;;;;;;19.90;13.70;;;;;;;6.59;100.00;99572.23;88133;281;22609;-67
2023/11/13 03:53:00;;;;;;;18.20;13.70;;;;;;;6.58;100.00;99573.96;88032;289;136768;-67
2023/11/13 03:55:02;;;;;;;18.40;13.70;;;;;;;6.55;100.00;99581.02;87678;282;708033;-68
2023/11/13 03:57:05;;;;;;;16.90;13.10;;;;;;;6.53;100.00;99581.61;88387;288;136170;-69
2023/11/13 03:59:07;;;;;;;19.40;14.10;;;;;;;6.52;100.00;99581.20;90205;284;22553;-65
2023/11/13 04:01:09;;;;;;;18.40;13.60;;;;;;;6.52;100.00;99586.47;88082;280;136559;-67
2023/11/13 04:03:11;;;;;;;17.10;13.80;;;;;;;6.52;100.00;99585.98;88441;286;22658;-70
2023/11/13 04:05:14;;;;;;;21.80;14.10;;;;;;;6.53;100.00;99588.39;88151;288;137914;-68
2023/11/13 04:07:20;;;;;;;18.00;13.40;;;;;;;6.54;100.00;99589.83;88321;279;22805;-64
2023/11/13 04:09:22;;;;;;;20.60;13.80;;;;;;;6.54;100.00;99594.52;88205;286;136630;-66
2023/11/13 04:11:24;;;;;;;15.90;12.60;;;;;;;6.55;100.00;99596.88;88123;285;25255;-68
2023/11/13 04:13:26;;;;;;;18.10;13.10;;;;;;;6.55;100.00;99597.82;88183;286;136662;-70
2023/11/13 04:15:28;;;;;;;18.30;13.50;;;;;;;6.52;100.00;99605.00;88382;279;24179;-69
2023/11/13 04:17:31;;;;;;;15.80;12.60;;;;;;;6.52;100.00;99599.73;88161;287;136660;-69
2023/11/13 04:19:33;;;;;;;14.90;12.60;;;;;;;6.54;100.00;99603.59;88350;279;22534;-68
2023/11/13 04:21:36;;;;;;;17.80;13.70;;;;;;;6.55;100.00;99602.95;88229;288;136904;-69
2023/11/13 04:23:38;;;;;;;14.10;12.60;;;;;;;6.59;100.00;99608.23;88441;282;22556;-70
2023/11/13 04:25:46;;;;;;;16.30;10.90;;;;;;;6.63;100.00;99606.73;88158;287;137751;-69
2023/11/13 04:27:48;;;;;;;18.00;12.10;;;;;;;6.63;100.00;99610.45;88339;278;22886;-70
2023/11/13 04:29:52;;;;;;;15.40;13.40;;;;;;;6.63;100.00;99609.94;88183;286;136715;-68
2023/11/13 04:31:56;;;;;;;17.50;13.40;;;;;;;6.62;100.00;99611.75;88279;283;22658;-68
2023/11/13 04:33:59;;;;;;;15.50;12.70;;;;;;;6.63;100.00;99616.48;88248;279;137257;-67
2023/11/13 04:36:02;;;;;;;17.20;13.20;;;;;;;6.65;100.00;99620.13;88367;280;22534;-69
2023/11/13 04:38:05;;;;;;;18.10;13.10;;;;;;;6.69;100.00;99624.80;88487;284;22543;-70
2023/11/13 04:40:11;;;;;;;15.30;12.60;;;;;;;6.70;100.00;99623.89;88261;282;139072;-68
2023/11/13 04:42:14;;;;;;;21.40;12.80;;;;;;;6.69;100.00;99623.50;88360;286;22621;-70
2023/11/13 04:44:16;;;;;;;18.50;13.00;;;;;;;6.68;100.00;99627.64;88435;285;138264;-69
2023/11/13 04:46:19;;;;;;;16.40;13.30;;;;;;;6.68;100.00;99633.11;88331;286;22615;-69
2023/11/13 04:48:21;;;;;;;13.50;11.20;;;;;;;6.69;100.00;99636.05;88265;282;136492;-67
2023/11/13 04:50:25;;;;;;;14.00;10.80;;;;;;;6.71;100.00;99637.34;88318;286;22561;-68
2023/11/13 04:52:27;;;;;;;14.30;11.90;;;;;;;6.73;100.00;99640.21;88182;286;136463;-70
2023/11/13 04:54:29;;;;;;;14.50;11.10;;;;;;;6.74;100.00;99643.42;88323;283;24030;-68
2023/11/13 04:56:31;;;;;;;15.40;11.40;;;;;;;6.76;100.00;99652.54;88241;279;137867;-67
2023/11/13 04:58:33;;;;;;;16.90;11.20;;;;;;;6.76;100.00;99656.05;88339;279;25201;-69
2023/11/13 05:00:36;;;;;;;12.40;10.50;;;;;;;6.78;100.00;99661.33;88170;280;137120;-69
2023/11/13 05:02:38;;;;;;;17.10;11.60;;;;;;;6.78;100.00;99666.02;87986;279;22498;-64
2023/11/13 05:04:43;;;;;;;13.40;10.50;;;;;;;6.78;100.00;99668.84;88180;284;136624;-68
2023/11/13 05:06:45;;;;;;;;;;;;;;;6.80;100.00;99671.32;88224;286;25398;-66
2023/11/13 05:08:47;;;;;;;14.60;10.50;;;;;;;6.78;100.00;99671.72;88123;281;122601;-68
2023/11/13 05:10:49;;;;;;;14.50;11.20;;;;;;;6.74;100.00;99676.96;88120;279;22540;-68
2023/11/13 05:12:51;;;;;;;12.60;10.80;;;;;;;6.69;100.00;99678.23;88012;285;137461;-68
2023/11/13 05:14:53;;;;;;;13.30;10.00;;;;;;;6.67;100.00;99680.10;88144;287;22638;-73
2023/11/13 05:16:56;;;;;;;15.70;11.20;;;;;;;6.66;100.00;99678.86;87988;283;136584;-72
2023/11/13 05:18:58;;;;;;;13.70;10.80;;;;;;;6.65;100.00;99678.17;88064;286;22529;-69
2023/11/13 05:21:01;;;;;;;15.90;10.80;;;;;;;6.66;100.00;99683.42;88136;286;136726;-72
2023/11/13 05:23:03;;;;;;;11.80;10.60;;;;;;;6.65;100.00;99683.98;88223;279;22540;-69
2023/11/13 05:25:05;;;;;;;15.00;10.50;;;;;;;6.63;100.00;99683.74;87908;284;136696;-68
2023/11/13 05:27:07;;;;;;;14.10;11.60;;;;;;;6.61;100.00;99685.64;88129;279;23794;-70
2023/11/13 05:29:09;;;;;;;14.60;10.40;;;;;;;6.62;100.00;99690.71;87966;286;136763;-69
2023/11/13 05:31:11;;;;;;;11.60;10.00;;;;;;;6.58;100.00;99681.43;88043;280;22566;-67
2023/11/13 05:33:13;;;;;;;13.80;11.40;;;;;;;6.63;100.00;99699.23;87833;286;137576;-68
2023/11/13 05:35:15;;;;;;;13.30;10.80;;;;;;;6.58;100.00;99700.86;87946;286;22560;-70
2023/11/13 05:37:18;;;;;;;12.70;10.50;;;;;;;6.58;100.00;99703.35;88253;286;136655;-69
2023/11/13 05:39:21;;;;;;;15.00;11.10;;;;;;;6.59;100.00;99708.16;88190;286;22635;-69
2023/11/13 05:41:24;;;;;;;15.00;11.10;;;;;;;6.60;100.00;99710.88;87912;279;136712;-70
2023/11/13 05:43:25;;;;;;;12.30;10.20;;;;;;;6.60;100.00;99716.77;88229;283;24170;-71
2023/11/13 05:45:28;;;;;;;16.00;12.00;;;;;;;6.58;100.00;99723.44;88067;283;137962;-72
2023/11/13 05:47:29;;;;;;;31.00;16.10;;;;;;;6.57;100.00;99729.27;87960;279;25124;-71
2023/11/13 05:49:32;;;;;;;29.30;16.80;;;;;;;6.57;100.00;99726.05;87913;278;136886;-67
2023/11/13 05:51:34;;;;;;;62.30;28.40;;;;;;;6.58;100.00;99727.95;88109;286;22542;-69
2023/11/13 05:53:36;;;;;;;30.40;16.80;;;;;;;6.58;100.00;99728.89;87989;283;137129;-72
2023/11/13 05:55:38;;;;;;;18.90;11.20;;;;;;;6.60;100.00;99725.73;88123;282;25128;-72
2023/11/13 05:57:42;;;;;;;16.50;11.10;;;;;;;6.62;100.00;99733.64;88123;285;136674;-70
2023/11/13 05:59:44;;;;;;;15.20;11.30;;;;;;;6.62;100.00;99740.19;88342;286;22712;-73
2023/11/13 06:01:48;;;;;;;11.50;10.30;;;;;;;6.62;100.00;99745.45;88124;282;136383;-76
2023/11/13 06:03:51;;;;;;;;;;;;;;;6.59;100.00;99745.08;88084;279;22536;-75
2023/11/13 06:05:54;;;;;;;12.30;9.90;;;;;;;6.59;100.00;99745.45;87994;279;123574;-73
2023/11/13 06:07:55;;;;;;;14.10;11.00;;;;;;;6.52;100.00;99744.44;87983;279;22540;-72
2023/11/13 06:09:58;;;;;;;13.60;10.30;;;;;;;6.56;100.00;99751.95;88272;286;138057;-73
2023/11/13 06:12:00;;;;;;;11.00;9.50;;;;;;;6.58;100.00;99758.83;88005;282;22554;-75
2023/11/13 06:14:05;;;;;;;13.00;10.70;;;;;;;6.58;100.00;99760.38;87924;278;136370;-74
2023/11/13 06:16:09;;;;;;;14.00;10.40;;;;;;;6.55;100.00;99762.64;88156;278;137093;-72
2023/11/13 06:18:11;;;;;;;11.50;9.40;;;;;;;6.53;100.00;99768.92;88364;279;22733;-78
2023/11/13 06:20:14;;;;;;;12.60;11.30;;;;;;;6.51;100.00;99764.89;88052;285;137363;-80
2023/11/13 06:22:17;;;;;;;12.20;9.70;;;;;;;6.52;100.00;99770.61;88208;281;22531;-74
2023/11/13 06:24:19;;;;;;;14.30;11.00;;;;;;;6.50;100.00;99771.75;88088;278;136384;-76
2023/11/13 06:26:21;;;;;;;13.90;10.70;;;;;;;6.50;100.00;99776.71;88072;279;22521;-71
2023/11/13 06:28:24;;;;;;;24.00;14.10;;;;;;;6.51;100.00;99773.01;88001;279;136950;-75
2023/11/13 06:30:27;;;;;;;25.40;15.50;;;;;;;6.52;100.00;99773.55;88125;280;23457;-72
2023/11/13 06:32:29;;;;;;;15.60;10.80;;;;;;;6.55;100.00;99778.90;88047;279;136895;-73
2023/11/13 06:34:31;;;;;;;18.60;10.50;;;;;;;6.49;100.00;99773.55;88067;282;24142;-71
2023/11/13 06:36:34;;;;;;;15.30;11.20;;;;;;;6.53;100.00;99788.64;88646;282;137865;-72
2023/11/13 06:38:36;;;;;;;15.50;11.40;;;;;;;6.49;100.00;99789.61;88722;282;22556;-71
2023/11/13 06:40:38;;;;;;;13.90;11.60;;;;;;;6.50;100.00;99794.32;87964;279;137835;-72
2023/11/13 06:42:41;;;;;;;14.40;11.50;;;;;;;6.51;100.00;99795.28;88098;282;25096;-78
2023/11/13 06:44:43;;;;;;;12.00;10.70;;;;;;;6.53;100.00;99794.86;88133;278;137257;-72
2023/11/13 06:46:45;;;;;;;13.60;10.90;;;;;;;6.53;100.00;99791.20;88083;278;22533;-74
2023/11/13 06:48:49;;;;;;;12.40;10.20;;;;;;;6.52;100.00;99792.65;88533;279;136540;-73
2023/11/13 06:50:51;;;;;;;10.90;9.70;;;;;;;6.51;100.00;99789.78;88209;278;22553;-76
2023/11/13 06:52:54;;;;;;;10.40;9.30;;;;;;;6.50;100.00;99791.30;88002;282;136638;-76
2023/11/13 06:54:58;;;;;;;12.00;10.50;;;;;;;6.45;100.00;99793.83;88145;286;22713;-71
2023/11/13 06:57:00;;;;;;;12.90;9.80;;;;;;;6.43;100.00;99797.50;87909;279;136756;-73
2023/11/13 06:59:03;;;;;;;13.60;10.40;;;;;;;6.45;100.00;99797.20;88067;279;22544;-71
2023/11/13 07:01:05;;;;;;;12.60;9.80;;;;;;;6.50;100.00;99804.05;88083;279;138001;-71
2023/11/13 07:03:07;;;;;;;11.50;9.40;;;;;;;6.55;100.00;99803.39;88073;279;22519;-77
2023/11/13 07:05:11;;;;;;;12.30;10.40;;;;;;;6.64;100.00;99809.00;88185;278;138257;-73
2023/11/13 07:07:13;;;;;;;12.10;9.90;;;;;;;6.69;100.00;99806.13;88301;278;22520;-71
2023/11/13 07:09:16;;;;;;;11.30;10.10;;;;;;;6.74;100.00;99808.36;88051;278;136853;-72
2023/11/13 07:11:22;;;;;;;11.60;10.40;;;;;;;6.79;100.00;99812.38;88041;279;22497;-70
2023/11/13 07:13:24;;;;;;;10.90;8.70;;;;;;;6.82;100.00;99812.18;88060;278;136888;-74
2023/11/13 07:15:26;;;;;;;12.40;9.40;;;;;;;6.84;100.00;99815.68;88102;286;23978;-70
2023/11/13 07:17:28;;;;;;;11.60;9.40;;;;;;;6.89;100.00;99816.88;87845;285;137800;-68
2023/11/13 07:19:34;;;;;;;11.50;9.80;;;;;;;6.93;100.00;99816.91;88113;279;22561;-72
2023/11/13 07:21:36;;;;;;;12.50;8.90;;;;;;;6.95;100.00;99821.16;88141;279;139135;-71
2023/11/13 07:23:38;;;;;;;11.60;9.10;;;;;;;6.81;100.00;99794.60;88031;279;23298;-73
2023/11/13 07:25:40;;;;;;;9.70;8.60;;;;;;;6.99;100.00;99820.17;87983;279;136997;-76
2023/11/13 07:27:43;;;;;;;16.70;9.60;;;;;;;6.99;100.00;99820.61;88586;279;22885;-71
2023/11/13 07:29:45;;;;;;;11.70;9.90;;;;;;;7.00;100.00;99817.38;88066;278;137413;-77
2023/11/13 07:31:47;;;;;;;10.50;9.30;;;;;;;7.04;100.00;99816.35;88169;282;22544;-70
2023/11/13 07:33:50;;;;;;;10.60;9.20;;;;;;;7.10;100.00;99816.77;87985;279;138636;-75
2023/11/13 07:35:52;;;;;;;12.50;9.90;;;;;;;7.14;100.00;99817.54;88157;279;22537;-74
2023/11/13 07:37:54;;;;;;;10.00;9.00;;;;;;;7.17;100.00;99818.20;88089;286;138055;-70
2023/11/13 07:39:56;;;;;;;14.90;8.90;;;;;;;7.22;100.00;99816.73;88064;282;25220;-73
2023/11/13 07:41:58;;;;;;;9.60;8.70;;;;;;;7.30;100.00;99818.26;88008;278;136847;-70
2023/11/13 07:44:01;;;;;;;11.10;8.70;;;;;;;7.36;100.00;99817.77;88840;278;22519;-68
2023/11/13 07:46:03;;;;;;;11.70;8.70;;;;;;;7.39;100.00;99815.49;88288;282;22544;-71
2023/11/13 07:48:05;;;;;;;10.90;8.80;;;;;;;7.41;100.00;99815.73;88197;278;137030;-69
2023/11/13 07:50:12;;;;;;;10.90;8.20;;;;;;;7.45;100.00;99814.11;88285;282;22530;-72
2023/11/13 07:52:15;;;;;;;9.30;8.40;;;;;;;7.47;100.00;99819.15;88090;279;137202;-71
2023/11/13 07:54:17;;;;;;;10.10;9.00;;;;;;;7.47;100.00;99823.23;88688;286;22540;-70
2023/11/13 07:56:19;;;;;;;9.80;8.40;;;;;;;7.47;100.00;99831.16;88062;279;137440;-74
2023/11/13 07:58:25;;;;;;;10.60;8.10;;;;;;;7.49;100.00;99825.64;88304;279;24023;-69
2023/11/13 08:00:28;;;;;;;8.40;7.60;;;;;;;7.53;100.00;99822.44;88119;279;137221;-69
2023/11/13 08:02:30;;;;;;;9.10;8.00;;;;;;;7.59;100.00;99826.00;88177;278;22531;-71
2023/11/13 08:04:32;;;;;;;8.30;7.40;;;;;;;7.63;100.00;99827.23;88057;282;136729;-74
2023/11/13 08:06:34;;;;;;;9.80;7.30;;;;;;;7.67;100.00;99825.16;88121;282;22903;-69
2023/11/13 08:08:37;;;;;;;9.40;8.20;;;;;;;7.73;100.00;99824.02;88210;278;136889;-72
2023/11/13 08:10:39;;;;;;;13.60;7.50;;;;;;;7.80;100.00;99824.95;88260;277;22540;-72
2023/11/13 08:12:46;;;;;;;9.00;8.00;;;;;;;7.85;100.00;99828.32;88144;277;138628;-73
2023/11/13 08:14:48;;;;;;;8.20;7.40;;;;;;;7.84;100.00;99820.04;88361;278;22540;-68
2023/11/13 08:16:50;;;;;;;10.30;9.30;;;;;;;7.95;100.00;99829.89;88100;281;138211;-66
2023/11/13 08:18:53;;;;;;;8.60;7.70;;;;;;;8.04;100.00;99829.59;88633;278;22564;-67
2023/11/13 08:20:54;;;;;;;8.70;7.90;;;;;;;8.13;100.00;99827.55;88063;279;137151;-70
2023/11/13 08:22:57;;;;;;;9.50;8.50;;;;;;;8.22;100.00;99827.98;88226;278;24885;-73
2023/11/13 08:24:59;;;;;;;9.60;8.70;;;;;;;8.29;100.00;99829.14;88569;277;138248;-73
2023/11/13 08:27:01;;;;;;;12.40;7.90;;;;;;;8.39;100.00;99821.78;88227;280;24247;-78
2023/11/13 08:29:08;;;;;;;11.70;9.60;;;;;;;8.44;100.00;99824.73;88232;278;137397;-75
2023/11/13 08:31:16;;;;;;;10.00;8.40;;;;;;;8.49;100.00;99823.83;88260;281;22739;-77
2023/11/13 08:33:20;;;;;;;11.10;8.20;;;;;;;8.56;100.00;99822.78;88080;278;136887;-77
2023/11/13 08:35:22;;;;;;;9.60;8.30;;;;;;;8.65;100.00;99824.01;88191;283;22623;-74
2023/11/13 08:37:25;;;;;;;10.30;7.80;;;;;;;8.72;100.00;99820.98;88090;278;137795;-76
2023/11/13 08:39:28;;;;;;;8.40;7.00;;;;;;;8.77;100.00;99817.11;88551;280;22621;-77
2023/11/13 08:41:33;;;;;;;9.10;8.20;;;;;;;8.84;100.00;99816.67;88569;278;137879;-72
2023/11/13 08:43:35;;;;;;;8.10;7.30;;;;;;;8.90;100.00;99814.04;88520;279;22636;-73
2023/11/13 08:45:39;;;;;;;9.00;7.90;;;;;;;8.92;100.00;99813.91;88128;278;137507;-74
2023/11/13 08:48:00;;;;;;;9.30;8.40;;;;;;;8.90;100.00;99815.92;88252;278;26078;-75
2023/11/13 08:50:04;;;;;;;9.60;8.20;;;;;;;8.84;100.00;99822.13;88227;278;22782;-73
2023/11/13 08:52:05;;;;;;;10.70;8.50;;;;;;;8.80;100.00;99822.56;88115;278;138314;-73
2023/11/13 08:54:08;;;;;;;8.60;7.80;;;;;;;8.80;100.00;99818.57;88512;284;22543;-71
2023/11/13 08:56:17;;;;;;;7.80;7.00;;;;;;;8.77;100.00;99803.95;88098;278;137448;-70
2023/11/13 08:58:20;;;;;;;9.30;7.20;;;;;;;8.82;100.00;99818.14;88200;278;24237;-69
2023/11/13 09:00:24;;;;;;;8.50;7.40;;;;;;;8.79;100.00;99821.90;88055;278;137021;-68
2023/11/13 09:02:27;;;;;;;8.20;6.90;;;;;;;8.79;100.00;99822.31;88597;278;22547;-76
2023/11/13 09:04:29;;;;;;;8.10;7.40;;;;;;;8.77;100.00;99810.90;88075;282;137795;-76
2023/11/13 09:06:34;;;;;;;8.10;6.90;;;;;;;8.78;100.00;99805.66;88226;278;22828;-70
2023/11/13 09:08:42;;;;;;;10.50;8.20;;;;;;;8.83;100.00;99797.91;88133;278;136692;-76
2023/11/13 09:10:44;;;;;;;8.60;7.70;;;;;;;8.87;100.00;99793.27;88239;282;22544;-75
2023/11/13 09:12:48;;;;;;;9.60;8.60;;;;;;;8.94;100.00;99792.05;88172;285;136900;-75
2023/11/13 09:14:50;;;;;;;8.30;7.30;;;;;;;9.02;100.00;99798.52;88510;285;22551;-78
2023/11/13 09:16:52;;;;;;;7.60;6.90;;;;;;;9.09;100.00;99800.14;88100;281;136779;-71
2023/11/13 09:18:55;;;;;;;7.80;7.00;;;;;;;9.14;100.00;99808.20;88252;278;23903;-70
2023/11/13 09:20:58;;;;;;;7.70;7.00;;;;;;;9.16;100.00;99811.79;88149;281;136773;-67
2023/11/13 09:23:00;;;;;;;7.80;7.00;;;;;;;9.20;100.00;99811.15;88351;277;24249;-79
2023/11/13 09:25:05;;;;;;;;;;;;;;;9.23;100.00;99806.91;88158;278;137433;-73
2023/11/13 09:27:09;;;;;;;9.30;8.00;;;;;;;9.23;100.00;99811.99;88423;285;24899;-70
2023/11/13 09:29:11;;;;;;;8.40;7.30;;;;;;;9.24;100.00;99814.55;88134;282;138273;-74
2023/11/13 09:31:14;;;;;;;11.20;8.40;;;;;;;9.26;100.00;99814.52;88204;278;22691;-75
2023/11/13 09:33:17;;;;;;;8.50;7.70;;;;;;;9.26;100.00;99818.08;88226;277;137206;-73
2023/11/13 09:35:22;;;;;;;11.10;8.50;;;;;;;9.25;100.00;99816.23;88366;282;23669;-77